createdAt,value
2023-11-01T00:00:26.625Z,23.10
2023-11-01T00:02:53.687Z,23.10
2023-11-01T00:05:20.768Z,23.10
2023-11-01T00:07:47.749Z,23.10
2023-11-01T00:10:14.862Z,23.10
2023-11-01T00:12:41.850Z,23.10
2023-11-01T00:15:10.237Z,23.10
2023-11-01T00:17:37.398Z,23.10
2023-11-01T00:20:07.846Z,23.10
2023-11-01T00:22:34.850Z,23.10
2023-11-01T00:25:01.924Z,23.10
2023-11-01T00:27:33.430Z,23.10
2023-11-01T00:30:01.239Z,23.10
2023-11-01T00:32:28.278Z,23.10
2023-11-01T00:34:55.788Z,23.10
2023-11-01T00:37:22.957Z,23.10
2023-11-01T00:39:49.927Z,23.10
2023-11-01T00:42:17.241Z,23.10
2023-11-01T00:44:44.249Z,23.10
2023-11-01T00:47:11.307Z,23.10
2023-11-01T00:49:38.247Z,23.10
2023-11-01T00:52:05.508Z,23.10
2023-11-01T00:54:32.470Z,23.10
2023-11-01T00:56:59.494Z,23.10
2023-11-01T00:59:26.477Z,23.10
2023-11-01T01:01:53.424Z,23.10
2023-11-01T01:04:20.408Z,23.10
2023-11-01T01:06:47.408Z,23.10
2023-11-01T01:09:14.429Z,23.10
2023-11-01T01:11:41.898Z,23.10
2023-11-01T01:14:08.945Z,23.10
2023-11-01T01:16:36.577Z,23.10
2023-11-01T01:19:04.888Z,23.10
2023-11-01T01:21:31.907Z,23.00
2023-11-01T01:23:58.817Z,23.10
2023-11-01T01:26:25.862Z,23.00
2023-11-01T01:28:52.910Z,23.00
2023-11-01T01:31:19.888Z,23.10
2023-11-01T01:33:46.987Z,23.00
2023-11-01T01:36:13.950Z,23.00
2023-11-01T01:38:40.971Z,23.00
2023-11-01T01:41:08.090Z,23.00
2023-11-01T01:43:35.172Z,23.00
2023-11-01T01:46:10.508Z,23.00
2023-11-01T01:48:38.542Z,23.00
2023-11-01T01:51:06.525Z,23.00
2023-11-01T01:53:34.483Z,23.00
2023-11-01T01:56:01.702Z,23.00
2023-11-01T01:58:28.838Z,23.00
2023-11-01T02:00:56.974Z,23.00
2023-11-01T02:03:24.208Z,23.00
2023-11-01T02:05:51.979Z,23.00
2023-11-01T02:08:19.012Z,23.00
2023-11-01T02:10:45.969Z,23.00
2023-11-01T02:13:13.525Z,23.00
2023-11-01T02:15:40.994Z,23.00
2023-11-01T02:18:08.197Z,23.00
2023-11-01T02:20:43.461Z,23.00
2023-11-01T02:23:11.915Z,23.00
2023-11-01T02:25:39.914Z,23.00
2023-11-01T02:28:07.407Z,23.00
2023-11-01T02:30:34.545Z,23.00
2023-11-01T02:33:01.694Z,23.00
2023-11-01T02:35:28.728Z,23.00
2023-11-01T02:37:55.783Z,23.00
2023-11-01T02:40:22.739Z,23.00
2023-11-01T02:42:52.414Z,22.90
2023-11-01T02:45:19.399Z,23.00
2023-11-01T02:47:46.418Z,22.90
2023-11-01T02:50:15.673Z,22.90
2023-11-01T02:52:42.900Z,22.90
2023-11-01T02:55:11.265Z,22.90
2023-11-01T02:57:38.583Z,22.90
2023-11-01T03:00:07.787Z,22.90
2023-11-01T03:02:38.267Z,22.90
2023-11-01T03:05:06.284Z,22.90
2023-11-01T03:07:33.359Z,22.90
2023-11-01T03:10:00.365Z,22.90
2023-11-01T03:12:27.284Z,22.90
2023-11-01T03:14:54.182Z,22.90
2023-11-01T03:17:21.356Z,22.90
2023-11-01T03:19:48.310Z,22.90
2023-11-01T03:22:15.313Z,22.90
2023-11-01T03:24:42.254Z,22.90
2023-11-01T03:27:09.204Z,22.90
2023-11-01T03:29:36.510Z,22.90
2023-11-01T03:32:04.373Z,22.90
2023-11-01T03:34:31.374Z,22.90
2023-11-01T03:36:58.360Z,22.90
2023-11-01T03:39:25.837Z,22.90
2023-11-01T03:41:52.762Z,22.90
2023-11-01T03:44:19.718Z,22.90
2023-11-01T03:46:47.501Z,22.90
2023-11-01T03:49:14.464Z,22.80
2023-11-01T03:51:41.440Z,22.90
2023-11-01T03:54:08.408Z,22.80
2023-11-01T03:56:35.370Z,22.90
2023-11-01T03:59:02.349Z,22.80
2023-11-01T04:01:29.429Z,22.80
2023-11-01T04:03:56.425Z,22.80
2023-11-01T04:06:23.731Z,22.80
2023-11-01T04:08:50.804Z,22.80
2023-11-01T04:11:17.853Z,22.80
2023-11-01T04:13:44.836Z,22.80
2023-11-01T04:16:11.842Z,22.80
2023-11-01T04:18:38.760Z,22.80
2023-11-01T04:21:05.789Z,22.80
2023-11-01T04:23:32.863Z,22.80
2023-11-01T04:26:01.568Z,22.80
2023-11-01T04:28:28.485Z,22.80
2023-11-01T04:30:56.138Z,22.80
2023-11-01T04:33:23.129Z,22.80
2023-11-01T04:35:50.194Z,22.80
2023-11-01T04:38:19.999Z,22.80
2023-11-01T04:40:47.073Z,22.80
2023-11-01T04:43:13.980Z,22.80
2023-11-01T04:45:41.103Z,22.80
2023-11-01T04:48:08.691Z,22.80
2023-11-01T04:50:35.724Z,22.90
2023-11-01T04:53:03.137Z,22.90
2023-11-01T04:55:30.157Z,22.90
2023-11-01T04:57:57.115Z,22.90
2023-11-01T05:00:24.048Z,22.90
2023-11-01T05:02:51.049Z,22.80
2023-11-01T05:05:18.501Z,22.90
2023-11-01T05:07:45.603Z,22.80
2023-11-01T05:10:12.533Z,22.80
2023-11-01T05:12:39.472Z,22.70
2023-11-01T05:15:06.598Z,22.70
2023-11-01T05:17:33.703Z,22.70
2023-11-01T05:20:00.643Z,22.70
2023-11-01T05:22:27.654Z,22.70
2023-11-01T05:24:54.593Z,22.60
2023-11-01T05:27:21.613Z,22.60
2023-11-01T05:29:48.871Z,22.60
2023-11-01T05:32:15.926Z,22.60
2023-11-01T05:34:42.993Z,22.60
2023-11-01T05:37:12.983Z,22.60
2023-11-01T05:39:41.926Z,22.60
2023-11-01T05:42:09.765Z,22.60
2023-11-01T05:44:36.785Z,22.70
2023-11-01T05:47:03.804Z,22.60
2023-11-01T05:49:30.806Z,22.70
2023-11-01T05:51:57.757Z,22.70
2023-11-01T05:54:24.990Z,22.70
2023-11-01T05:56:51.953Z,22.70
2023-11-01T05:59:18.890Z,22.70
2023-11-01T06:01:46.002Z,22.70
2023-11-01T06:04:13.113Z,22.70
2023-11-01T06:06:40.139Z,22.70
2023-11-01T06:09:07.176Z,22.70
2023-11-01T06:11:34.206Z,22.80
2023-11-01T06:14:01.139Z,22.80
2023-11-01T06:16:28.158Z,22.90
2023-11-01T06:26:06.117Z,22.90
2023-11-01T06:28:33.165Z,22.90
2023-11-01T06:31:00.172Z,22.90
2023-11-01T06:33:27.222Z,22.90
2023-11-01T06:35:54.260Z,23.00
2023-11-01T06:38:21.384Z,22.90
2023-11-01T06:40:48.655Z,23.00
2023-11-01T06:43:15.624Z,23.00
2023-11-01T06:45:42.645Z,23.00
2023-11-01T06:48:10.918Z,23.00
2023-11-01T06:50:40.853Z,23.00
2023-11-01T06:53:07.819Z,23.00
2023-11-01T06:55:34.822Z,23.10
2023-11-01T06:58:01.876Z,23.00
2023-11-01T07:00:29.167Z,23.10
2023-11-01T07:02:56.206Z,23.10
2023-11-01T07:05:23.172Z,23.10
2023-11-01T07:07:53.180Z,23.10
2023-11-01T07:10:20.123Z,23.10
2023-11-01T07:12:47.096Z,23.10
2023-11-01T07:15:14.028Z,23.20
2023-11-01T07:17:41.101Z,23.10
2023-11-01T07:20:08.429Z,23.20
2023-11-01T07:22:35.430Z,23.20
2023-11-01T07:25:02.454Z,23.20
2023-11-01T07:27:29.384Z,23.20
2023-11-01T07:29:56.502Z,23.20
2023-11-01T07:32:24.262Z,23.30
2023-11-01T07:34:51.465Z,23.30
2023-11-01T07:37:18.412Z,23.30
2023-11-01T07:39:45.363Z,23.30
2023-11-01T07:42:12.298Z,23.30
2023-11-01T07:44:39.516Z,23.30
2023-11-01T07:47:06.580Z,23.30
2023-11-01T07:49:33.791Z,23.30
2023-11-01T07:52:01.323Z,23.30
2023-11-01T07:54:28.288Z,23.40
2023-11-01T07:56:55.481Z,23.40
2023-11-01T07:59:22.615Z,23.40
2023-11-01T08:01:49.770Z,23.40
2023-11-01T08:04:19.071Z,23.40
2023-11-01T08:06:47.300Z,23.40
2023-11-01T08:09:14.663Z,23.40
2023-11-01T08:11:41.642Z,23.40
2023-11-01T08:14:09.169Z,23.40
2023-11-01T08:16:36.407Z,23.40
2023-11-01T08:19:03.881Z,23.50
2023-11-01T08:21:30.949Z,23.50
2023-11-01T08:23:57.940Z,23.50
2023-11-01T08:26:25.010Z,23.50
2023-11-01T08:28:51.993Z,23.50
2023-11-01T08:31:18.942Z,23.60
2023-11-01T08:33:46.086Z,23.50
2023-11-01T08:36:13.238Z,23.60
2023-11-01T08:38:40.256Z,23.60
2023-11-01T08:41:07.250Z,23.60
2023-11-01T08:43:34.222Z,23.60
2023-11-01T08:46:01.352Z,23.60
2023-11-01T08:48:28.491Z,23.70
2023-11-01T08:50:55.581Z,23.70
2023-11-01T08:53:23.966Z,23.70
2023-11-01T08:55:52.885Z,23.70
2023-11-01T08:58:19.831Z,23.70
2023-11-01T09:00:48.501Z,23.70
2023-11-01T09:03:15.982Z,23.70
2023-11-01T09:05:43.608Z,23.70
2023-11-01T09:08:11.193Z,23.80
2023-11-01T09:10:38.152Z,23.80
2023-11-01T09:13:05.119Z,23.80
2023-11-01T09:15:32.091Z,23.80
2023-11-01T09:17:59.088Z,23.80
2023-11-01T09:20:29.116Z,23.80
2023-11-01T09:22:57.709Z,23.90
2023-11-01T09:25:25.716Z,23.90
2023-11-01T09:27:52.599Z,23.90
2023-11-01T09:30:19.607Z,23.90
2023-11-01T09:32:46.626Z,23.90
2023-11-01T09:35:13.697Z,23.90
2023-11-01T09:37:40.729Z,23.90
2023-11-01T09:40:12.568Z,24.00
2023-11-01T09:42:41.319Z,24.00
2023-11-01T09:45:10.879Z,24.00
2023-11-01T09:47:38.379Z,24.00
2023-11-01T09:50:06.928Z,24.00
2023-11-01T09:52:36.003Z,24.00
2023-11-01T09:55:05.055Z,24.00
2023-11-01T09:57:34.207Z,24.10
2023-11-01T10:00:02.788Z,24.10
2023-11-01T10:02:29.807Z,24.10
2023-11-01T10:04:57.547Z,24.10
2023-11-01T10:07:24.480Z,24.10
2023-11-01T10:09:51.688Z,24.10
2023-11-01T10:12:18.907Z,24.10
2023-11-01T10:14:45.853Z,24.10
2023-11-01T10:17:12.830Z,24.20
2023-11-01T10:19:42.221Z,24.20
2023-11-01T10:22:09.183Z,24.20
2023-11-01T10:24:36.284Z,24.20
2023-11-01T10:27:03.317Z,24.20
2023-11-01T10:29:30.372Z,24.20
2023-11-01T10:31:58.055Z,24.20
2023-11-01T10:34:32.164Z,24.20
2023-11-01T10:36:59.969Z,24.30
2023-11-01T10:39:27.830Z,24.30
2023-11-01T10:41:55.575Z,24.30
2023-11-01T10:44:23.170Z,24.30
2023-11-01T10:46:50.685Z,24.30
2023-11-01T10:49:17.644Z,24.30
2023-11-01T10:51:45.172Z,24.30
2023-11-01T10:54:13.000Z,24.30
2023-11-01T10:56:41.243Z,24.30
2023-11-01T10:59:14.605Z,24.30
2023-11-01T11:01:45.574Z,24.30
2023-11-01T11:04:28.048Z,24.30
2023-11-01T11:06:58.698Z,24.40
2023-11-01T11:09:26.679Z,24.40
2023-11-01T11:12:15.231Z,24.40
2023-11-01T11:14:46.068Z,24.40
2023-11-01T11:17:15.142Z,24.40
2023-11-01T11:20:01.972Z,24.40
2023-11-01T11:22:50.736Z,24.50
2023-11-01T11:25:37.514Z,24.50
2023-11-01T11:28:06.564Z,24.50
2023-11-01T11:30:53.388Z,24.50
2023-11-01T11:33:20.526Z,24.50
2023-11-01T11:36:07.425Z,24.50
2023-11-01T11:38:37.992Z,24.50
2023-11-01T11:41:19.659Z,24.50
2023-11-01T11:44:03.953Z,24.50
2023-11-01T11:46:33.092Z,24.50
2023-11-01T11:49:00.794Z,24.50
2023-11-01T11:51:28.876Z,24.50
2023-11-01T11:53:55.987Z,24.50
2023-11-01T11:56:23.469Z,24.50
2023-11-01T11:58:50.798Z,24.50
2023-11-01T12:01:27.872Z,24.60
2023-11-01T12:04:01.291Z,24.60
2023-11-01T12:06:45.465Z,24.50
2023-11-01T12:09:13.298Z,24.50
2023-11-01T12:11:40.297Z,24.60
2023-11-01T12:14:07.437Z,24.60
2023-11-01T12:16:38.747Z,24.60
2023-11-01T12:19:15.137Z,24.60
2023-11-01T12:21:42.755Z,24.60
2023-11-01T12:24:11.343Z,24.60
2023-11-01T12:26:58.207Z,24.60
2023-11-01T12:29:32.861Z,24.60
2023-11-01T12:32:00.988Z,24.60
2023-11-01T12:34:28.023Z,24.60
2023-11-01T12:37:03.030Z,24.60
2023-11-01T12:39:30.117Z,24.60
2023-11-01T12:41:57.180Z,24.60
2023-11-01T12:44:27.212Z,24.60
2023-11-01T12:46:57.906Z,24.60
2023-11-01T12:49:24.957Z,24.60
2023-11-01T12:51:51.901Z,24.60
2023-11-01T12:54:18.828Z,24.70
2023-11-01T12:56:45.854Z,24.70
2023-11-01T12:59:14.074Z,24.60
2023-11-01T13:01:41.068Z,24.70
2023-11-01T13:04:08.821Z,24.70
2023-11-01T13:06:35.866Z,24.70
2023-11-01T13:09:03.821Z,24.70
2023-11-01T13:11:30.844Z,24.70
2023-11-01T13:13:57.845Z,24.70
2023-11-01T13:16:24.969Z,24.70
2023-11-01T13:18:52.196Z,24.70
2023-11-01T13:21:19.203Z,24.60
2023-11-01T13:23:46.179Z,24.60
2023-11-01T13:26:15.738Z,24.60
2023-11-01T13:28:43.279Z,24.60
2023-11-01T13:31:10.282Z,24.60
2023-11-01T13:33:37.341Z,24.60
2023-11-01T13:36:04.561Z,24.60
2023-11-01T13:38:31.641Z,24.60
2023-11-01T13:40:58.653Z,24.60
2023-11-01T13:43:25.601Z,24.60
2023-11-01T13:45:53.825Z,24.60
2023-11-01T13:48:21.259Z,24.60
2023-11-01T13:50:48.702Z,24.60
2023-11-01T13:53:15.741Z,24.60
2023-11-01T13:55:49.728Z,24.60
2023-11-01T13:58:17.420Z,24.60
2023-11-01T14:00:44.707Z,24.60
2023-11-01T14:03:11.972Z,24.60
2023-11-01T14:05:40.720Z,24.60
2023-11-01T14:08:08.919Z,24.60
2023-11-01T14:10:36.515Z,24.50
2023-11-01T14:13:07.441Z,24.50
2023-11-01T14:15:35.321Z,24.50
2023-11-01T14:18:03.265Z,24.50
2023-11-01T14:20:30.484Z,24.50
2023-11-01T14:22:58.205Z,24.50
2023-11-01T14:25:25.362Z,24.50
2023-11-01T14:27:52.285Z,24.50
2023-11-01T14:30:19.393Z,24.50
2023-11-01T14:32:46.768Z,24.50
2023-11-01T14:35:14.606Z,24.50
2023-11-01T14:37:42.126Z,24.40
2023-11-01T14:40:09.992Z,24.40
2023-11-01T14:42:37.449Z,24.40
2023-11-01T14:45:08.312Z,24.40
2023-11-01T14:47:38.511Z,24.30
2023-11-01T14:50:06.627Z,24.30
2023-11-01T14:52:33.568Z,24.30
2023-11-01T14:55:00.638Z,24.30
2023-11-01T14:57:27.735Z,24.30
2023-11-01T14:59:54.908Z,24.30
2023-11-01T15:02:22.195Z,24.20
2023-11-01T15:04:51.543Z,24.20
2023-11-01T15:07:18.484Z,24.20
2023-11-01T15:09:45.401Z,24.20
2023-11-01T15:12:14.299Z,24.20
2023-11-01T15:14:41.380Z,24.20
2023-11-01T15:17:08.433Z,24.20
2023-11-01T15:19:35.464Z,24.10
2023-11-01T15:22:02.647Z,24.10
2023-11-01T15:24:29.607Z,24.10
2023-11-01T15:26:57.760Z,24.10
2023-11-01T15:29:25.729Z,24.00
2023-11-01T15:31:54.678Z,24.00
2023-11-01T15:34:21.717Z,24.00
2023-11-01T15:36:48.809Z,24.00
2023-11-01T15:39:15.789Z,24.00
2023-11-01T15:41:42.768Z,23.90
2023-11-01T15:44:09.805Z,23.90
2023-11-01T15:46:40.751Z,23.90
2023-11-01T15:49:08.717Z,23.90
2023-11-01T15:51:35.677Z,23.90
2023-11-01T15:54:02.617Z,23.90
2023-11-01T15:56:29.637Z,23.80
2023-11-01T15:58:56.718Z,23.80
2023-11-01T16:01:23.801Z,23.80
2023-11-01T16:03:50.810Z,23.70
2023-11-01T16:06:18.020Z,23.80
2023-11-01T16:08:45.066Z,23.70
2023-11-01T16:11:15.085Z,23.70
2023-11-01T16:13:42.457Z,23.70
2023-11-01T16:16:09.416Z,23.70
2023-11-01T16:18:36.488Z,23.70
2023-11-01T16:21:03.628Z,23.70
2023-11-01T16:23:30.606Z,23.60
2023-11-01T16:26:00.445Z,23.60
2023-11-01T16:28:27.388Z,23.60
2023-11-01T16:30:55.957Z,23.60
2023-11-01T16:33:22.973Z,23.60
2023-11-01T16:35:50.013Z,23.60
2023-11-01T16:38:16.938Z,23.60
2023-11-01T16:40:43.921Z,23.60
2023-11-01T16:43:13.283Z,23.60
2023-11-01T16:45:44.232Z,23.60
2023-11-01T16:48:11.334Z,23.60
2023-11-01T16:50:38.390Z,23.60
2023-11-01T16:53:05.771Z,23.60
2023-11-01T16:55:32.697Z,23.50
2023-11-01T16:58:02.433Z,23.50
2023-11-01T17:00:29.711Z,23.50
2023-11-01T17:02:56.805Z,23.50
2023-11-01T17:05:26.936Z,23.50
2023-11-01T17:07:53.882Z,23.50
2023-11-01T17:10:20.825Z,23.50
2023-11-01T17:12:47.848Z,23.40
2023-11-01T17:15:15.947Z,23.40
2023-11-01T17:17:44.160Z,23.40
2023-11-01T17:20:11.381Z,23.40
2023-11-01T17:22:52.398Z,23.40
2023-11-01T17:25:42.082Z,23.40
2023-11-01T17:28:21.385Z,23.40
2023-11-01T17:30:52.317Z,23.40
2023-11-01T17:33:32.688Z,23.30
2023-11-01T17:36:04.994Z,23.30
2023-11-01T17:38:41.035Z,23.30
2023-11-01T17:41:10.321Z,23.30
2023-11-01T17:43:46.972Z,23.30
2023-11-01T17:46:19.091Z,23.30
2023-11-01T17:48:47.118Z,23.30
2023-11-01T17:51:15.081Z,23.30
2023-11-01T17:53:42.099Z,23.30
2023-11-01T17:56:09.521Z,23.30
2023-11-01T17:58:36.776Z,23.30
2023-11-01T18:01:04.980Z,23.30
2023-11-01T18:03:37.927Z,23.30
2023-11-01T18:06:05.385Z,23.30
2023-11-01T18:08:34.100Z,23.30
2023-11-01T18:11:02.000Z,23.30
2023-11-01T18:13:30.030Z,23.30
2023-11-01T18:16:05.092Z,23.30
2023-11-01T18:18:45.924Z,23.30
2023-11-01T18:21:30.134Z,23.30
2023-11-01T18:24:08.290Z,23.20
2023-11-01T18:26:36.877Z,23.20
2023-11-01T18:29:06.431Z,23.20
2023-11-01T18:31:37.934Z,23.20
2023-11-01T18:34:08.704Z,23.20
2023-11-01T18:36:40.406Z,23.20
2023-11-01T18:39:11.162Z,23.20
2023-11-01T18:41:39.508Z,23.20
2023-11-01T18:44:15.003Z,23.20
2023-11-01T18:46:44.350Z,23.20
2023-11-01T18:49:11.603Z,23.10
2023-11-01T18:52:02.465Z,23.10
2023-11-01T18:54:39.705Z,23.10
2023-11-01T18:57:08.188Z,23.10
2023-11-01T18:59:36.577Z,23.10
2023-11-01T19:02:04.664Z,23.10
2023-11-01T19:04:33.092Z,23.10
2023-11-01T19:07:06.184Z,23.10
2023-11-01T19:09:37.235Z,23.10
2023-11-01T19:12:04.559Z,23.10
2023-11-01T19:14:33.715Z,23.10
2023-11-01T19:17:01.303Z,23.10
2023-11-01T19:19:28.265Z,23.20
2023-11-01T19:21:55.210Z,23.10
2023-11-01T19:24:22.281Z,23.10
2023-11-01T19:26:50.544Z,23.10
2023-11-01T19:29:18.926Z,23.10
2023-11-01T19:31:45.930Z,23.10
2023-11-01T19:34:12.961Z,23.10
2023-11-01T19:36:40.214Z,23.10
2023-11-01T19:39:08.962Z,23.10
2023-11-01T19:41:37.062Z,23.20
2023-11-01T19:44:04.951Z,23.10
2023-11-01T19:46:33.668Z,23.10
2023-11-01T19:49:00.838Z,23.10
2023-11-01T19:51:29.101Z,23.10
2023-11-01T19:53:56.100Z,23.10
2023-11-01T19:56:29.692Z,23.10
2023-11-01T19:58:56.708Z,23.10
2023-11-01T20:01:24.150Z,23.10
2023-11-01T20:03:51.766Z,23.10
2023-11-01T20:06:20.338Z,23.10
2023-11-01T20:08:47.475Z,23.10
2023-11-01T20:11:14.541Z,23.10
2023-11-01T20:13:46.655Z,23.10
2023-11-01T20:16:21.323Z,23.10
2023-11-01T20:18:52.332Z,23.10
2023-11-01T20:21:19.642Z,23.10
2023-11-01T20:23:47.295Z,23.10
2023-11-01T20:26:14.405Z,23.00
2023-11-01T20:28:41.361Z,23.10
2023-11-01T20:31:08.334Z,23.00
2023-11-01T20:33:35.589Z,23.10
2023-11-01T20:36:03.563Z,23.10
2023-11-01T20:38:30.509Z,23.10
2023-11-01T20:40:58.475Z,23.10
2023-11-01T20:43:26.006Z,23.10
2023-11-01T20:45:53.093Z,23.10
2023-11-01T20:48:20.385Z,23.10
2023-11-01T20:50:48.808Z,23.10
2023-11-01T20:53:15.876Z,23.10
2023-11-01T20:55:42.992Z,23.10
2023-11-01T20:58:10.549Z,23.10
2023-11-01T21:00:37.567Z,23.10
2023-11-01T21:03:04.831Z,23.10
2023-11-01T21:05:32.573Z,23.10
2023-11-01T21:08:01.183Z,23.10
2023-11-01T21:10:29.094Z,23.10
2023-11-01T21:12:56.238Z,23.00
2023-11-01T21:15:23.240Z,23.10
2023-11-01T21:17:51.322Z,23.10
2023-11-01T21:20:18.518Z,23.00
2023-11-01T21:22:45.434Z,23.00
2023-11-01T21:25:14.381Z,23.00
2023-11-01T21:27:41.392Z,23.00
2023-11-01T21:30:09.236Z,23.00
2023-11-01T21:32:36.349Z,23.00
2023-11-01T21:35:03.291Z,23.00
2023-11-01T21:37:30.449Z,23.00
2023-11-01T21:39:57.392Z,23.00
2023-11-01T21:42:25.101Z,23.00
2023-11-01T21:44:52.169Z,23.00
2023-11-01T21:47:24.567Z,23.00
2023-11-01T21:49:51.801Z,23.00
2023-11-01T21:52:22.670Z,23.00
2023-11-01T21:54:50.808Z,23.00
2023-11-01T21:57:21.343Z,23.00
2023-11-01T21:59:49.229Z,23.00
2023-11-01T22:02:17.659Z,23.00
2023-11-01T22:04:46.771Z,23.10
2023-11-01T22:07:16.322Z,23.10
2023-11-01T22:09:43.496Z,23.00
2023-11-01T22:12:10.787Z,23.00
2023-11-01T22:14:40.847Z,23.00
2023-11-01T22:17:08.222Z,23.00
2023-11-01T22:19:39.472Z,23.00
2023-11-01T22:22:26.450Z,23.00
2023-11-01T22:24:54.576Z,23.00
2023-11-01T22:27:24.297Z,23.00
2023-11-01T22:29:52.563Z,23.00
2023-11-01T22:32:25.998Z,23.00
2023-11-01T22:34:54.128Z,23.00
2023-11-01T22:37:25.177Z,23.00
2023-11-01T22:39:52.890Z,23.00
2023-11-01T22:42:24.077Z,23.00
2023-11-01T22:44:51.148Z,23.00
2023-11-01T22:47:19.153Z,23.00
2023-11-01T22:49:46.256Z,23.00
2023-11-01T22:52:13.321Z,23.00
2023-11-01T22:54:40.943Z,23.00
2023-11-01T22:57:07.940Z,23.00
2023-11-01T22:59:38.756Z,23.00
2023-11-01T23:02:09.196Z,23.00
2023-11-01T23:04:37.206Z,23.00
2023-11-01T23:07:04.344Z,23.00
2023-11-01T23:09:31.336Z,23.00
2023-11-01T23:11:58.364Z,23.00
2023-11-01T23:14:25.639Z,23.00
2023-11-01T23:16:52.601Z,23.00
2023-11-01T23:19:19.917Z,23.00
2023-11-01T23:21:46.898Z,23.00
2023-11-01T23:24:14.859Z,23.00
2023-11-01T23:26:55.102Z,23.00
2023-11-01T23:29:32.648Z,23.00
2023-11-01T23:32:00.627Z,23.00
2023-11-01T23:34:43.650Z,23.00
2023-11-01T23:37:15.797Z,23.00
2023-11-01T23:39:42.778Z,23.00
2023-11-01T23:42:11.050Z,23.00
2023-11-01T23:44:38.406Z,22.90
2023-11-01T23:47:05.897Z,23.00
2023-11-01T23:49:52.743Z,22.90
2023-11-01T23:52:20.021Z,22.90
2023-11-01T23:54:50.654Z,22.90
2023-11-01T23:57:18.212Z,22.90
2023-11-01T23:59:45.176Z,22.90
